Time,TemperatureF,DewpointF,PressureIn,WindDirection,WindDirectionDegrees,WindSpeedMPH,WindSpeedGustMPH,Humidity,HourlyPrecipIn,Conditions,Clouds,dailyrainin,SoftwareType,DateUTC
2013-08-24 00:00:00,65.9,57.3,30.40,SE,135,1.1,1.1,74,0.00,,,0.00,WUHU216HW,2013-08-24 05:00:00,
2013-08-24 00:05:00,65.9,57.3,30.40,SE,135,1.1,1.1,74,0.00,,,0.00,WUHU216HW,2013-08-24 05:05:00,
2013-08-24 00:30:00,65.3,57.2,30.41,SE,135,2.7,2.7,75,0.00,,,0.00,WUHU216HW,2013-08-24 05:30:00,
2013-08-24 00:35:00,65.3,57.2,30.41,SE,135,2.7,2.7,75,0.00,,,0.00,WUHU216HW,2013-08-24 05:35:00,
2013-08-24 01:00:00,64.8,57.1,30.42,SE,135,0.4,0.4,76,0.00,,,0.00,WUHU216HW,2013-08-24 06:00:00,
2013-08-24 01:05:00,64.8,57.1,30.42,SE,135,0.4,0.4,76,0.00,,,0.00,WUHU216HW,2013-08-24 06:05:00,
2013-08-24 01:30:00,64.1,56.7,30.42,SSE,158,1.1,1.1,77,0.00,,,0.00,WUHU216HW,2013-08-24 06:30:00,
2013-08-24 01:35:00,64.1,56.7,30.42,SSE,158,1.1,1.1,77,0.00,,,0.00,WUHU216HW,2013-08-24 06:35:00,
2013-08-24 02:00:00,63.5,56.9,30.42,SSE,158,1.8,1.8,79,0.00,,,0.00,WUHU216HW,2013-08-24 07:00:00,
2013-08-24 02:05:00,63.5,56.9,30.42,SSE,158,1.8,1.8,79,0.00,,,0.00,WUHU216HW,2013-08-24 07:05:00,
2013-08-24 02:30:00,62.8,56.2,30.43,West,270,0.0,0.0,79,0.00,,,0.00,WUHU216HW,2013-08-24 07:30:00,
2013-08-24 02:35:00,62.8,56.2,30.43,West,270,0.0,0.0,79,0.00,,,0.00,WUHU216HW,2013-08-24 07:35:00,
2013-08-24 03:00:00,62.3,56.0,30.44,SE,135,0.0,0.0,80,0.00,,,0.00,WUHU216HW,2013-08-24 08:00:00,
2013-08-24 03:05:00,62.3,56.0,30.44,SE,135,0.0,0.0,80,0.00,,,0.00,WUHU216HW,2013-08-24 08:05:00,
2013-08-24 03:30:00,61.9,56.1,30.44,SE,135,1.1,1.1,81,0.00,,,0.00,WUHU216HW,2013-08-24 08:30:00,
2013-08-24 03:35:00,61.9,56.1,30.44,SE,135,1.1,1.1,81,0.00,,,0.00,WUHU216HW,2013-08-24 08:35:00,
2013-08-24 04:00:00,61.4,55.9,30.44,SSE,158,1.6,1.6,82,0.00,,,0.00,WUHU216HW,2013-08-24 09:00:00,
2013-08-24 04:05:00,61.4,55.9,30.44,SSE,158,1.6,1.6,82,0.00,,,0.00,WUHU216HW,2013-08-24 09:05:00,
2013-08-24 04:30:00,61.0,55.9,30.45,SE,135,1.1,1.1,83,0.00,,,0.00,WUHU216HW,2013-08-24 09:30:00,
2013-08-24 04:35:00,61.0,55.9,30.45,SE,135,1.1,1.1,83,0.00,,,0.00,WUHU216HW,2013-08-24 09:35:00,
2013-08-24 05:00:00,60.8,55.7,30.45,SW,225,0.0,0.0,83,0.00,,,0.00,WUHU216HW,2013-08-24 10:00:00,
2013-08-24 05:05:00,60.8,55.7,30.45,SW,225,0.0,0.0,83,0.00,,,0.00,WUHU216HW,2013-08-24 10:05:00,
2013-08-24 05:30:00,60.7,55.5,30.45,SE,135,1.8,1.8,83,0.00,,,0.00,WUHU216HW,2013-08-24 10:30:00,
2013-08-24 05:35:00,60.7,55.5,30.45,SE,135,1.8,1.8,83,0.00,,,0.00,WUHU216HW,2013-08-24 10:35:00,
2013-08-24 06:00:00,61.0,55.5,30.46,SSE,158,1.1,1.1,82,0.00,,,0.00,WUHU216HW,2013-08-24 11:00:00,
2013-08-24 06:05:00,61.0,55.5,30.46,SSE,158,1.1,1.1,82,0.00,,,0.00,WUHU216HW,2013-08-24 11:05:00,
2013-08-24 06:30:00,61.2,55.4,30.46,SE,135,0.2,0.2,81,0.00,,,0.00,WUHU216HW,2013-08-24 11:30:00,
2013-08-24 06:35:00,61.2,55.4,30.46,SE,135,0.2,0.2,81,0.00,,,0.00,WUHU216HW,2013-08-24 11:35:00,
2013-08-24 07:00:00,61.6,55.4,30.47,SE,135,0.9,0.9,80,0.00,,,0.00,WUHU216HW,2013-08-24 12:00:00,
2013-08-24 07:30:00,62.5,55.4,30.47,South,180,1.6,1.6,78,0.00,,,0.00,WUHU216HW,2013-08-24 12:30:00,
2013-08-24 08:00:00,63.9,56.2,30.48,SE,135,0.9,0.9,76,0.00,,,0.00,WUHU216HW,2013-08-24 13:00:00,
2013-08-24 08:30:00,66.2,56.2,30.47,SW,225,2.0,2.0,70,0.00,,,0.00,WUHU216HW,2013-08-24 13:30:00,
2013-08-24 08:59:00,68.9,55.8,30.46,SSE,158,1.8,1.8,63,0.00,,,0.00,WUHU216HW,2013-08-24 13:59:00,
2013-08-24 09:00:00,68.9,56.3,30.46,ESE,113,2.0,2.0,64,0.00,,,0.00,WUHU216HW,2013-08-24 14:00:00,
2013-08-24 09:30:00,70.7,56.7,30.46,SW,225,0.7,0.7,61,0.00,,,0.00,WUHU216HW,2013-08-24 14:30:00,
2013-08-24 09:59:00,71.8,57.3,30.46,SSE,158,2.2,2.2,60,0.00,,,0.00,WUHU216HW,2013-08-24 14:59:00,
2013-08-24 10:00:00,71.8,57.3,30.46,SSE,158,2.2,2.2,60,0.00,,,0.00,WUHU216HW,2013-08-24 15:00:00,
2013-08-24 10:30:00,72.2,56.5,30.46,WSW,248,4.5,4.5,58,0.00,,,0.00,WUHU216HW,2013-08-24 15:30:00,
2013-08-24 10:59:00,72.5,57.9,30.46,SSW,203,1.6,1.6,60,0.00,,,0.00,WUHU216HW,2013-08-24 15:59:00,
2013-08-24 11:00:00,72.5,57.9,30.46,SSW,203,1.6,1.6,60,0.00,,,0.00,WUHU216HW,2013-08-24 16:00:00,
2013-08-24 11:30:00,74.9,57.6,30.45,SE,135,3.6,3.6,55,0.00,,,0.00,WUHU216HW,2013-08-24 16:30:00,
2013-08-24 11:35:00,74.9,57.6,30.45,SE,135,3.6,3.6,55,0.00,,,0.00,WUHU216HW,2013-08-24 16:35:00,
2013-08-24 11:59:00,74.9,58.2,30.45,SSE,158,1.8,1.8,56,0.00,,,0.00,WUHU216HW,2013-08-24 16:59:00,
2013-08-24 12:00:00,74.9,58.2,30.45,SSE,158,1.8,1.8,56,0.00,,,0.00,WUHU216HW,2013-08-24 17:00:00,
2013-08-24 12:05:00,74.9,58.2,30.45,SSE,158,1.8,1.8,56,0.00,,,0.00,WUHU216HW,2013-08-24 17:05:00,
2013-08-24 12:30:00,74.5,58.8,30.44,South,180,2.5,2.5,58,0.00,,,0.00,WUHU216HW,2013-08-24 17:30:00,
2013-08-24 12:35:00,74.5,58.8,30.44,South,180,2.5,2.5,58,0.00,,,0.00,WUHU216HW,2013-08-24 17:35:00,
2013-08-24 12:59:00,75.1,59.8,30.44,South,180,1.1,1.1,59,0.00,,,0.00,WUHU216HW,2013-08-24 17:59:00,
2013-08-24 13:00:00,75.1,59.8,30.44,South,180,1.1,1.1,59,0.00,,,0.00,WUHU216HW,2013-08-24 18:00:00,
2013-08-24 13:05:00,75.1,59.8,30.44,South,180,1.1,1.1,59,0.00,,,0.00,WUHU216HW,2013-08-24 18:05:00,
2013-08-24 13:30:00,74.7,59.0,30.44,WSW,248,1.3,1.3,58,0.00,,,0.00,WUHU216HW,2013-08-24 18:30:00,
2013-08-24 13:35:00,74.7,59.0,30.44,WSW,248,1.3,1.3,58,0.00,,,0.00,WUHU216HW,2013-08-24 18:35:00,
2013-08-24 13:59:00,75.8,60.5,30.42,West,270,0.4,0.4,59,0.00,,,0.00,WUHU216HW,2013-08-24 18:59:00,
2013-08-24 14:00:00,75.8,60.5,30.42,West,270,0.4,0.4,59,0.00,,,0.00,WUHU216HW,2013-08-24 19:00:00,
2013-08-24 14:05:00,75.8,60.5,30.42,West,270,0.4,0.4,59,0.00,,,0.00,WUHU216HW,2013-08-24 19:05:00,
2013-08-24 14:30:00,75.2,59.9,30.42,South,180,3.1,3.1,59,0.00,,,0.00,WUHU216HW,2013-08-24 19:30:00,
2013-08-24 14:35:00,75.2,59.9,30.42,South,180,3.1,3.1,59,0.00,,,0.00,WUHU216HW,2013-08-24 19:35:00,
2013-08-24 14:59:00,76.7,60.3,30.40,SE,135,6.9,6.9,57,0.00,,,0.00,WUHU216HW,2013-08-24 19:59:00,
2013-08-24 15:00:00,76.7,60.3,30.40,SE,135,6.9,6.9,57,0.00,,,0.00,WUHU216HW,2013-08-24 20:00:00,
2013-08-24 15:05:00,76.7,60.3,30.40,SE,135,6.9,6.9,57,0.00,,,0.00,WUHU216HW,2013-08-24 20:05:00,
2013-08-24 15:30:00,78.3,61.8,30.39,SSE,158,3.4,3.4,57,0.00,,,0.00,WUHU216HW,2013-08-24 20:30:00,
2013-08-24 15:35:00,78.3,61.8,30.39,SSE,158,3.4,3.4,57,0.00,,,0.00,WUHU216HW,2013-08-24 20:35:00,
2013-08-24 16:00:00,78.1,62.2,30.38,SE,135,2.5,2.5,58,0.00,,,0.00,WUHU216HW,2013-08-24 21:00:00,
2013-08-24 16:05:00,78.1,62.2,30.38,SE,135,2.5,2.5,58,0.00,,,0.00,WUHU216HW,2013-08-24 21:05:00,
2013-08-24 16:30:00,78.7,62.6,30.38,SSE,158,1.1,1.1,58,0.00,,,0.00,WUHU216HW,2013-08-24 21:30:00,
2013-08-24 16:35:00,78.7,62.6,30.38,SSE,158,1.1,1.1,58,0.00,,,0.00,WUHU216HW,2013-08-24 21:35:00,
2013-08-24 17:00:00,78.7,62.6,30.37,South,180,6.5,6.5,58,0.00,,,0.00,WUHU216HW,2013-08-24 22:00:00,
2013-08-24 17:05:00,78.7,62.6,30.37,South,180,6.5,6.5,58,0.00,,,0.00,WUHU216HW,2013-08-24 22:05:00,
2013-08-24 17:30:00,78.3,62.4,30.36,SE,135,1.8,1.8,58,0.00,,,0.00,WUHU216HW,2013-08-24 22:30:00,
2013-08-24 17:35:00,78.3,62.4,30.36,SE,135,1.8,1.8,58,0.00,,,0.00,WUHU216HW,2013-08-24 22:35:00,
2013-08-24 18:00:00,77.9,62.5,30.36,SSE,158,4.0,4.0,59,0.00,,,0.00,WUHU216HW,2013-08-24 23:00:00,
2013-08-24 18:05:00,77.9,62.5,30.36,SSE,158,4.0,4.0,59,0.00,,,0.00,WUHU216HW,2013-08-24 23:05:00,
2013-08-24 18:30:00,77.2,62.7,30.35,SE,135,1.8,1.8,61,0.00,,,0.00,WUHU216HW,2013-08-24 23:30:00,
2013-08-24 18:35:00,77.2,62.7,30.35,SE,135,1.8,1.8,61,0.00,,,0.00,WUHU216HW,2013-08-24 23:35:00,
2013-08-24 18:59:00,76.3,62.8,30.35,SE,135,4.5,4.5,63,0.00,,,0.00,WUHU216HW,2013-08-24 23:59:00,
2013-08-24 19:00:00,76.3,62.8,30.35,SE,135,4.5,4.5,63,0.00,,,0.00,WUHU216HW,2013-08-25 00:00:00,
2013-08-24 19:05:00,76.3,62.8,30.35,SE,135,4.5,4.5,63,0.00,,,0.00,WUHU216HW,2013-08-25 00:05:00,
2013-08-24 19:30:00,75.1,62.9,30.34,SE,135,3.4,3.4,66,0.00,,,0.00,WUHU216HW,2013-08-25 00:30:00,
2013-08-24 19:35:00,75.1,62.9,30.34,SE,135,3.4,3.4,66,0.00,,,0.00,WUHU216HW,2013-08-25 00:35:00,
2013-08-24 19:59:00,74.3,62.2,30.34,SSW,203,2.2,2.2,66,0.00,,,0.00,WUHU216HW,2013-08-25 00:59:00,
2013-08-24 20:00:00,74.3,62.2,30.34,SSW,203,2.2,2.2,66,0.00,,,0.00,WUHU216HW,2013-08-25 01:00:00,
2013-08-24 20:05:00,74.3,62.2,30.34,SSW,203,2.2,2.2,66,0.00,,,0.00,WUHU216HW,2013-08-25 01:05:00,
2013-08-24 20:30:00,73.8,61.8,30.35,SSE,158,5.1,5.1,66,0.00,,,0.00,WUHU216HW,2013-08-25 01:30:00,
2013-08-24 20:35:00,73.8,61.8,30.35,SSE,158,5.1,5.1,66,0.00,,,0.00,WUHU216HW,2013-08-25 01:35:00,
2013-08-24 21:00:00,72.9,61.3,30.34,SE,135,1.6,1.6,67,0.00,,,0.00,WUHU216HW,2013-08-25 02:00:00,
2013-08-24 21:05:00,72.7,61.6,30.34,SE,135,4.3,4.3,68,0.00,,,0.00,WUHU216HW,2013-08-25 02:05:00,
2013-08-24 21:10:00,72.7,61.6,30.34,SE,135,4.3,4.3,68,0.00,,,0.00,WUHU216HW,2013-08-25 02:10:00,
2013-08-24 21:30:00,72.4,62.1,30.34,East,90,3.1,3.1,70,0.00,,,0.00,WUHU216HW,2013-08-25 02:30:00,
2013-08-24 21:59:00,72.4,63.3,30.32,SE,135,2.0,2.0,73,0.00,,,0.00,WUHU216HW,2013-08-25 02:59:00,
2013-08-24 22:00:00,72.4,63.3,30.32,SE,135,2.0,2.0,73,0.00,,,0.00,WUHU216HW,2013-08-25 03:00:00,
2013-08-24 22:30:00,72.4,64.7,30.32,SSE,158,2.9,2.9,77,0.00,,,0.00,WUHU216HW,2013-08-25 03:30:00,
2013-08-24 22:59:00,72.4,64.7,30.32,SSW,203,2.5,2.5,77,0.00,,,0.00,WUHU216HW,2013-08-25 03:59:00,
2013-08-24 23:00:00,72.4,64.7,30.32,SSW,203,2.5,2.5,77,0.00,,,0.00,WUHU216HW,2013-08-25 04:00:00,
2013-08-24 23:30:00,72.7,65.5,30.33,SW,225,3.8,3.8,78,0.00,,,0.00,WUHU216HW,2013-08-25 04:30:00,
2013-08-24 23:59:00,72.9,66.1,30.33,SW,225,4.3,4.3,79,0.00,,,0.00,WUHU216HW,2013-08-25 04:59:00,